Akron Canton Regional Airport
KCAK : now visible

Airfield :











YOU CAN JOIN US ON...

 
LOGIN :

Register | Disclaimer

   EN    FR    IT 

 









Legend :    VFR   Marginal VFR   IFR   Intensive IFR   Very Intensive IFR
Visi :
Ceiling :
>= 8 km
>= 3000ft
5 to 8 km
1000 to 3000 ft
1500m to 5 km
500 to 1000 ft
800 to 1500m
200 to 500 ft
< 800m
< 200 ft
Symbols :   Thunderstorms  Fog  Heavy snow  Heavy precipitations  Wind > 20 kt






- Airport Elevation : 1228 ft
- IATA code : CAK


KCAK - Akron Canton Regional

CURRENT METAR :
  • 180651Z 26008KT 5SM -SN BR FEW008 SCT020 OVC050 M01/M03 A2969 RMK AO2 SLP065 P0000 T10061028 $

EXPIRED METARs :
  • 180609Z 25007KT 5SM -SN BR BKN010 BKN020 OVC047 M01/M03 A2969 RMK AO2 P0000 T10061028 $
  • 180551Z 26007KT 2SM -SN BR SCT004 BKN018 OVC032 M01/M03 A2969 RMK AO2 SFC VIS 4 SLP063 4/001 P0001 60005 T10061028 10006 21006 55000 $
  • 180510Z 27009KT 2SM -SN BR SCT004 BKN008 OVC029 M01/M02 A2968 RMK AO2 P0001 T10061022 $
  • 180451Z 27005KT 1 1/2SM -SN BR OVC004 00/M02 A2968 RMK AO2 TWR VIS 2 SLP062 P0002 T00001017 400221006 $
  • 180447Z 28005KT 1 1/4SM -SN BR OVC004 00/M02 A2968 RMK AO2 TWR VIS 2 CIG 003V008 P0002 $

TAF KCAK
Valid from the 18 at 06:00 until the 19 at 06:00 UTC


180544Z 1806/1906 25007KT P6SM OVC015
TEMPO 1806/1807 4SM -SN BR BKN008
FM180800 25008KT P6SM OVC015
FM181600 25009KT 3SM -SHSN OVC010
FM182200 26010KT P6SM OVC015
FM190000 25009KT P6SM BKN015
KZOB FIR / North America



MET'MAP, your aeronautical weather chart ! - Copyright ORBIFLY December 2007 - Disclaimer

ORBIFLY MET'MAP TEAM :

Programming & Development : Alexandra Zaïnal
Concept & original design : Baudouin d'Aumeries
Assistance for programming : Marc-Olivier Méhu
Technical & hardware support : Manuel Goepfert

Contact : metmap@orbifly.com




SOURCES & CREDITS :

   NOAA       Earth
Advisory